Sylvania Township, Ohio
Current Conditions -  °F | °C
As of 4:52 AM on Thursday 23 Oct 2014 (Local Time) from KTOL Reporting Station
Clear Clear  
Wind Chill: 34°   Ceiling: Unl
Heat Index: 34°   Visibility: 10mi
Dew Point: 32°   Wind: 0mph
Humidity: 92%   Direction: NA
Pressure: 30.26"   Gusts: NA
Location:  41.6632°N, 83.7323°W
Report Text: KTOL 230852Z 00000KT 10SM CLR 01/00 A3026 RMK AO2 SLP250 T00110000 56007
Loading
Personal Weather Stations






























Interactive Weather Map
Tropical Storm Tracking
New forecast layout! Learn more

10-Day Weather Forecast

Advertisements
Track Severe Weather on mobile